createdAt,value
2019-03-28T00:02:03.489Z,2.70
2019-03-28T00:04:44.980Z,2.93
2019-03-28T00:07:11.178Z,2.47
2019-03-28T00:09:43.466Z,3.27
2019-03-28T00:12:09.624Z,3.37
2019-03-28T00:14:35.804Z,3.57
2019-03-28T00:17:04.572Z,2.77
2019-03-28T00:19:30.755Z,2.53
2019-03-28T00:21:56.926Z,3.33
2019-03-28T00:24:43.120Z,2.83
2019-03-28T00:27:09.402Z,3.33
2019-03-28T00:29:35.600Z,3.40
2019-03-28T00:32:01.771Z,3.10
2019-03-28T00:34:27.964Z,2.80
2019-03-28T00:36:54.174Z,3.50
2019-03-28T00:39:20.419Z,2.90
2019-03-28T00:41:46.741Z,3.70
2019-03-28T00:44:13.064Z,2.97
2019-03-28T00:46:39.610Z,3.87
2019-03-28T00:49:05.894Z,3.17
2019-03-28T00:51:38.199Z,4.40
2019-03-28T00:54:04.498Z,2.77
2019-03-28T00:56:44.817Z,2.63
2019-03-28T00:59:08.786Z,3.73
2019-03-28T01:01:47.364Z,3.10
2019-03-28T01:04:13.543Z,2.07
2019-03-28T01:06:39.729Z,2.60
2019-03-28T01:09:06.729Z,4.30
2019-03-28T01:11:35.680Z,3.27
2019-03-28T01:14:01.863Z,3.40
2019-03-28T01:16:28.149Z,3.40
2019-03-28T01:18:54.325Z,3.23
2019-03-28T01:21:20.566Z,3.07
2019-03-28T01:23:46.740Z,3.43
2019-03-28T01:26:12.900Z,3.43
2019-03-28T01:28:39.126Z,3.30
2019-03-28T01:31:05.290Z,2.83
2019-03-28T01:33:31.493Z,3.53
2019-03-28T01:35:57.664Z,2.90
2019-03-28T01:38:24.294Z,3.10
2019-03-28T01:40:51.080Z,3.27
2019-03-28T01:43:17.408Z,3.13
2019-03-28T01:45:46.728Z,3.77
2019-03-28T01:48:12.887Z,3.50
2019-03-28T01:50:51.262Z,3.23
2019-03-28T01:53:20.204Z,3.03
2019-03-28T01:55:46.403Z,3.03
2019-03-28T01:58:12.570Z,3.60
2019-03-28T02:00:41.612Z,3.30
2019-03-28T02:03:07.775Z,3.40
2019-03-28T02:05:34.089Z,4.43
2019-03-28T02:08:02.732Z,3.17
2019-03-28T02:10:28.444Z,4.00
2019-03-28T02:12:57.129Z,3.43
2019-03-28T02:15:23.310Z,3.80
2019-03-28T02:17:49.487Z,3.40
2019-03-28T02:20:18.243Z,3.83
2019-03-28T02:22:45.151Z,3.53
2019-03-28T02:25:14.299Z,2.40
2019-03-28T02:27:40.470Z,3.27
2019-03-28T02:30:07.947Z,3.83
2019-03-28T02:32:34.253Z,4.47
2019-03-28T02:35:00.635Z,3.47
2019-03-28T02:37:26.885Z,2.90
2019-03-28T02:39:53.183Z,3.47
2019-03-28T02:42:19.366Z,3.57
2019-03-28T02:44:45.592Z,3.50
2019-03-28T02:47:11.826Z,3.03
2019-03-28T02:49:38.021Z,3.60
2019-03-28T02:52:04.202Z,3.73
2019-03-28T02:54:31.528Z,3.33
2019-03-28T02:56:58.157Z,3.83
2019-03-28T02:59:24.336Z,3.83
2019-03-28T03:01:53.133Z,3.40
2019-03-28T03:04:21.894Z,3.20
2019-03-28T03:06:48.045Z,3.20
2019-03-28T03:09:14.321Z,3.43
2019-03-28T03:11:42.741Z,3.70
2019-03-28T03:14:08.597Z,4.07
2019-03-28T03:16:34.991Z,3.23
2019-03-28T03:19:01.242Z,3.30
2019-03-28T03:21:27.517Z,3.73
2019-03-28T03:23:53.781Z,4.07
2019-03-28T03:26:19.972Z,3.93
2019-03-28T03:28:46.176Z,4.17
2019-03-28T03:31:12.441Z,3.63
2019-03-28T03:33:38.768Z,4.07
2019-03-28T03:36:04.947Z,4.07
2019-03-28T03:38:31.122Z,3.83
2019-03-28T03:40:57.334Z,4.27
2019-03-28T03:43:23.597Z,3.50
2019-03-28T03:45:49.866Z,4.27
2019-03-28T03:48:16.044Z,4.53
2019-03-28T03:50:42.212Z,3.70
2019-03-28T03:53:08.482Z,3.53
2019-03-28T03:55:34.737Z,4.07
2019-03-28T03:58:14.385Z,4.20
2019-03-28T04:00:34.388Z,3.67
2019-03-28T04:03:00.726Z,3.67
2019-03-28T04:05:28.213Z,4.73
2019-03-28T04:07:54.393Z,3.60
2019-03-28T04:10:20.581Z,3.27
2019-03-28T04:12:46.825Z,4.17
2019-03-28T04:15:12.986Z,4.70
2019-03-28T04:17:39.191Z,4.13
2019-03-28T04:20:05.456Z,4.70
2019-03-28T04:22:31.653Z,4.60
2019-03-28T04:24:57.854Z,4.70
2019-03-28T04:27:24.039Z,3.50
2019-03-28T04:29:50.216Z,3.97
2019-03-28T04:32:16.382Z,4.53
2019-03-28T04:34:48.947Z,4.03
2019-03-28T04:37:15.143Z,4.93
2019-03-28T04:39:42.399Z,6.43
2019-03-28T04:42:08.809Z,4.33
2019-03-28T04:44:35.020Z,4.90
2019-03-28T04:47:01.226Z,3.77
2019-03-28T04:49:29.945Z,4.37
2019-03-28T04:51:56.119Z,5.17
2019-03-28T04:54:22.388Z,5.00
2019-03-28T04:56:48.539Z,4.40
2019-03-28T04:59:15.359Z,4.33
2019-03-28T05:01:41.841Z,4.43
2019-03-28T05:04:08.057Z,5.67
2019-03-28T05:06:34.223Z,4.17
2019-03-28T05:09:00.463Z,5.53
2019-03-28T05:11:26.654Z,4.87
2019-03-28T05:13:52.892Z,3.50
2019-03-28T05:16:19.149Z,4.63
2019-03-28T05:18:45.372Z,5.73
2019-03-28T05:21:11.574Z,4.80
2019-03-28T05:23:37.739Z,4.10
2019-03-28T05:26:03.932Z,5.00
2019-03-28T05:28:30.196Z,4.13
2019-03-28T05:30:56.430Z,5.10
2019-03-28T05:33:22.640Z,4.97
2019-03-28T05:35:48.965Z,4.80
2019-03-28T05:38:18.118Z,3.47
2019-03-28T05:40:44.514Z,4.97
2019-03-28T05:43:10.714Z,5.87
2019-03-28T05:45:36.972Z,4.07
2019-03-28T05:48:03.133Z,4.63
2019-03-28T05:50:29.339Z,3.97
2019-03-28T05:52:55.488Z,4.70
2019-03-28T05:55:24.262Z,4.80
2019-03-28T05:57:50.592Z,5.30
2019-03-28T06:00:16.919Z,4.70
2019-03-28T06:02:43.092Z,5.60
2019-03-28T06:05:09.276Z,5.43
2019-03-28T06:07:44.694Z,6.30
2019-03-28T06:10:11.250Z,5.53
2019-03-28T06:12:37.393Z,4.80
2019-03-28T06:15:05.361Z,5.07
2019-03-28T06:17:31.624Z,5.47
2019-03-28T06:20:00.661Z,5.10
2019-03-28T06:22:26.853Z,5.93
2019-03-28T06:24:53.095Z,4.80
2019-03-28T06:27:19.293Z,6.00
2019-03-28T06:29:45.553Z,5.10
2019-03-28T06:32:11.746Z,4.57
2019-03-28T06:34:40.862Z,5.10
2019-03-28T06:37:25.612Z,4.53
2019-03-28T06:39:51.831Z,6.30
2019-03-28T06:42:18.042Z,4.63
2019-03-28T06:44:47.187Z,4.33
2019-03-28T06:47:15.906Z,5.10
2019-03-28T06:49:42.102Z,5.57
2019-03-28T06:52:08.310Z,5.90
2019-03-28T06:54:34.586Z,6.20
2019-03-28T06:57:00.878Z,5.00
2019-03-28T06:59:36.679Z,6.30
2019-03-28T07:01:55.401Z,5.93
2019-03-28T07:04:24.538Z,5.17
2019-03-28T07:06:53.335Z,5.80
2019-03-28T07:09:19.550Z,5.17
2019-03-28T07:11:45.779Z,5.07
2019-03-28T07:14:12.043Z,6.10
2019-03-28T07:16:38.330Z,5.50
2019-03-28T07:19:05.019Z,5.40
2019-03-28T07:21:49.444Z,5.70
2019-03-28T07:24:15.638Z,5.70
2019-03-28T07:27:00.121Z,6.07
2019-03-28T07:29:26.278Z,5.33
2019-03-28T07:31:52.442Z,6.23
2019-03-28T07:34:27.757Z,6.53
2019-03-28T07:36:53.936Z,5.63
2019-03-28T07:39:20.139Z,5.27
2019-03-28T07:41:46.359Z,5.20
2019-03-28T07:44:12.790Z,6.10
2019-03-28T07:46:39.197Z,5.13
2019-03-28T07:49:08.000Z,6.50
2019-03-28T07:51:34.202Z,6.20
2019-03-28T07:54:00.360Z,5.83
2019-03-28T07:56:26.618Z,4.97
2019-03-28T07:58:52.937Z,7.07
2019-03-28T08:01:19.155Z,5.43
2019-03-28T08:03:45.315Z,5.80
2019-03-28T08:06:29.907Z,5.30
2019-03-28T08:08:56.084Z,5.83
2019-03-28T08:11:22.364Z,5.73
2019-03-28T08:13:48.750Z,6.47
2019-03-28T08:16:17.984Z,5.73
2019-03-28T08:18:44.272Z,4.80
2019-03-28T08:21:10.478Z,6.17
2019-03-28T08:23:36.719Z,5.60
2019-03-28T08:26:03.033Z,5.67
2019-03-28T08:28:32.195Z,5.43
2019-03-28T08:31:00.928Z,5.63
2019-03-28T08:33:30.468Z,6.27
2019-03-28T08:35:56.858Z,5.47
2019-03-28T08:38:24.952Z,5.90
2019-03-28T08:40:51.668Z,6.20
2019-03-28T08:43:27.315Z,4.73
2019-03-28T08:45:56.102Z,5.97
2019-03-28T08:48:22.283Z,6.30
2019-03-28T08:50:48.638Z,4.93
2019-03-28T08:53:14.842Z,6.10
2019-03-28T08:55:41.128Z,6.03
2019-03-28T08:58:19.463Z,4.87
2019-03-28T09:00:52.300Z,5.07
2019-03-28T09:03:25.777Z,5.47
2019-03-28T09:05:54.698Z,5.27
2019-03-28T09:08:36.210Z,5.03
2019-03-28T09:11:02.832Z,5.60
2019-03-28T09:13:31.819Z,5.40
2019-03-28T09:15:58.178Z,5.17
2019-03-28T09:18:42.967Z,5.13
2019-03-28T09:21:09.177Z,5.43
2019-03-28T09:23:35.371Z,5.83
2019-03-28T09:26:04.238Z,5.27
2019-03-28T09:28:47.869Z,4.57
2019-03-28T09:31:19.873Z,4.90
2019-03-28T09:33:42.301Z,4.70
2019-03-28T09:36:08.578Z,5.93
2019-03-28T09:38:34.786Z,5.80
2019-03-28T09:41:00.978Z,5.50
2019-03-28T09:43:27.209Z,5.60
2019-03-28T09:45:53.410Z,5.33
2019-03-28T09:48:20.117Z,5.50
2019-03-28T09:50:49.225Z,4.67
2019-03-28T09:53:15.405Z,5.13
2019-03-28T09:55:41.622Z,5.10
2019-03-28T09:58:07.761Z,5.30
2019-03-28T10:00:34.691Z,5.50
2019-03-28T10:03:01.111Z,5.57
2019-03-28T10:05:29.912Z,4.33
2019-03-28T10:07:56.126Z,3.73
2019-03-28T10:10:22.587Z,3.90
2019-03-28T10:12:51.451Z,4.10
2019-03-28T10:15:17.955Z,4.40
2019-03-28T10:18:02.912Z,4.73
2019-03-28T10:20:29.226Z,4.57
2019-03-28T10:22:58.438Z,4.07
2019-03-28T10:25:43.388Z,3.40
2019-03-28T10:28:09.553Z,4.13
2019-03-28T10:30:40.091Z,3.90
2019-03-28T10:33:08.988Z,3.63
2019-03-28T10:35:35.158Z,4.93
2019-03-28T10:38:01.355Z,4.43
2019-03-28T10:40:27.539Z,4.10
2019-03-28T10:42:53.705Z,4.03
2019-03-28T10:45:19.957Z,5.23
2019-03-28T10:47:46.312Z,4.83
2019-03-28T10:50:12.576Z,4.93
2019-03-28T10:52:38.764Z,4.43
2019-03-28T10:55:05.121Z,4.03
2019-03-28T10:57:32.185Z,4.33
2019-03-28T10:59:58.702Z,5.20
2019-03-28T11:02:24.952Z,4.17
2019-03-28T11:04:51.118Z,4.17
2019-03-28T11:07:17.284Z,3.43
2019-03-28T11:09:43.495Z,3.77
2019-03-28T11:12:28.403Z,3.45
2019-03-28T11:14:54.657Z,3.95
2019-03-28T11:17:21.766Z,4.00
2019-03-28T11:20:07.121Z,3.55
2019-03-28T11:22:36.285Z,3.55
2019-03-28T11:25:04.971Z,4.55
2019-03-28T11:27:33.759Z,4.28
2019-03-28T11:30:00.348Z,4.35
2019-03-28T11:32:45.432Z,3.83
2019-03-28T11:35:11.815Z,3.90
2019-03-28T11:37:38.369Z,3.02
2019-03-28T11:40:09.136Z,3.55
2019-03-28T11:42:37.722Z,3.77
2019-03-28T11:45:09.275Z,2.77
2019-03-28T11:47:38.009Z,3.05
2019-03-28T11:50:06.254Z,3.53
2019-03-28T11:52:32.619Z,2.83
2019-03-28T11:55:01.834Z,2.37
2019-03-28T11:57:46.846Z,2.40
2019-03-28T12:00:15.513Z,2.47
2019-03-28T12:02:41.901Z,3.43
2019-03-28T12:05:17.264Z,3.05
2019-03-28T12:07:43.551Z,3.72
2019-03-28T12:10:10.935Z,2.40
2019-03-28T12:12:37.134Z,2.53
2019-03-28T12:15:05.728Z,1.62
2019-03-28T12:17:47.134Z,1.40
2019-03-28T12:20:13.615Z,1.97
2019-03-28T12:22:40.205Z,1.53
2019-03-28T12:25:09.354Z,1.47
2019-03-28T12:27:54.231Z,1.70
2019-03-28T12:30:20.669Z,1.53
2019-03-28T12:32:46.880Z,2.30
2019-03-28T12:35:13.383Z,2.40
2019-03-28T12:37:39.875Z,2.50
2019-03-28T12:40:15.600Z,2.20
2019-03-28T12:42:42.024Z,2.70
2019-03-28T12:45:23.564Z,2.27
2019-03-28T12:47:50.057Z,2.57
2019-03-28T12:50:34.924Z,2.73
2019-03-28T12:53:01.125Z,2.50
2019-03-28T12:55:27.373Z,2.30
2019-03-28T12:57:54.043Z,1.87
2019-03-28T13:00:32.796Z,2.23
2019-03-28T13:02:59.007Z,2.07
2019-03-28T13:05:26.351Z,2.63
2019-03-28T13:08:02.119Z,2.00
2019-03-28T13:10:28.341Z,2.33
2019-03-28T13:12:54.543Z,2.15
2019-03-28T13:15:20.743Z,2.40
2019-03-28T13:17:46.994Z,2.47
2019-03-28T13:20:13.653Z,2.50
2019-03-28T13:22:52.227Z,2.50
2019-03-28T13:25:30.632Z,2.53
2019-03-28T13:27:56.874Z,2.50
2019-03-28T13:30:23.216Z,3.13
2019-03-28T13:32:49.488Z,2.33
2019-03-28T13:35:16.156Z,2.42
2019-03-28T13:37:42.348Z,2.30
2019-03-28T13:40:09.031Z,2.57
2019-03-28T13:42:54.016Z,2.47
2019-03-28T13:45:23.214Z,2.47
2019-03-28T13:48:07.991Z,2.03
2019-03-28T13:50:34.229Z,2.02
2019-03-28T13:53:00.615Z,2.80
2019-03-28T13:55:26.793Z,1.97
2019-03-28T13:57:53.004Z,2.30
2019-03-28T14:00:23.140Z,2.12
2019-03-28T14:02:57.110Z,2.87
2019-03-28T14:05:17.712Z,2.40
2019-03-28T14:07:46.568Z,2.13
2019-03-28T14:10:13.172Z,2.27
2019-03-28T14:12:51.682Z,1.67
2019-03-28T14:15:17.917Z,1.93
2019-03-28T14:17:46.742Z,3.07
2019-03-28T14:20:14.210Z,1.87
2019-03-28T14:22:59.322Z,1.90
2019-03-28T14:25:44.469Z,2.30
2019-03-28T14:28:13.800Z,2.70
2019-03-28T14:30:42.852Z,2.43
2019-03-28T14:33:27.941Z,2.33
2019-03-28T14:35:56.677Z,2.03
2019-03-28T14:38:22.880Z,2.50
2019-03-28T14:40:49.043Z,2.57
2019-03-28T14:43:15.329Z,2.08
2019-03-28T14:45:41.502Z,2.23
2019-03-28T14:48:10.349Z,2.70
2019-03-28T14:50:38.025Z,1.98
2019-03-28T14:53:04.799Z,2.50
2019-03-28T14:55:50.196Z,2.20
2019-03-28T14:58:22.054Z,2.37
2019-03-28T15:00:52.305Z,2.73
2019-03-28T15:03:26.614Z,2.50
2019-03-28T15:05:49.868Z,2.30
2019-03-28T15:08:34.700Z,3.23
2019-03-28T15:11:01.592Z,2.10
2019-03-28T15:13:30.540Z,2.17
2019-03-28T15:15:59.268Z,2.40
2019-03-28T15:18:25.475Z,1.73
2019-03-28T15:20:52.075Z,2.40
2019-03-28T15:23:21.382Z,2.20
2019-03-28T15:25:47.570Z,2.10
2019-03-28T15:28:13.819Z,2.30
2019-03-28T15:30:40.788Z,2.70
2019-03-28T15:33:07.195Z,2.57
2019-03-28T15:35:33.449Z,1.90
2019-03-28T15:37:59.808Z,2.10
2019-03-28T15:40:28.771Z,2.60
2019-03-28T15:42:54.991Z,2.13
2019-03-28T15:45:21.168Z,2.20
2019-03-28T15:47:47.359Z,2.40
2019-03-28T15:50:13.936Z,2.50
2019-03-28T15:52:42.935Z,2.30
2019-03-28T15:55:09.237Z,2.10
2019-03-28T15:57:40.725Z,2.33
2019-03-28T16:00:07.906Z,2.27
2019-03-28T16:02:49.172Z,2.50
2019-03-28T16:05:17.942Z,2.23
2019-03-28T16:07:44.276Z,2.13
2019-03-28T16:10:10.786Z,2.50
2019-03-28T16:12:40.271Z,2.40
2019-03-28T16:15:06.977Z,2.50
2019-03-28T16:17:33.216Z,1.87
2019-03-28T16:20:04.335Z,2.33
2019-03-28T16:22:30.697Z,2.40
2019-03-28T16:24:56.895Z,2.10
2019-03-28T16:27:23.286Z,2.43
2019-03-28T16:29:54.304Z,2.00
2019-03-28T16:32:20.330Z,2.10
2019-03-28T16:34:46.528Z,1.97
2019-03-28T16:37:12.703Z,2.80
2019-03-28T16:39:38.914Z,2.37
2019-03-28T16:42:05.103Z,2.10
2019-03-28T16:44:31.453Z,2.20
2019-03-28T16:47:01.098Z,2.47
2019-03-28T16:49:27.368Z,2.00
2019-03-28T16:51:53.674Z,2.40
2019-03-28T16:54:20.008Z,2.63
2019-03-28T16:56:46.278Z,2.23
2019-03-28T16:59:12.465Z,3.10
2019-03-28T17:01:38.740Z,2.57
2019-03-28T17:04:05.047Z,2.53
2019-03-28T17:06:31.438Z,2.53
2019-03-28T17:09:16.498Z,2.80
2019-03-28T17:11:45.453Z,2.40
2019-03-28T17:14:11.738Z,3.10
2019-03-28T17:16:38.036Z,1.83
2019-03-28T17:19:04.431Z,2.33
2019-03-28T17:21:42.898Z,1.77
2019-03-28T17:24:09.251Z,1.97
2019-03-28T17:26:35.652Z,1.90
2019-03-28T17:29:20.652Z,1.83
2019-03-28T17:31:46.837Z,2.43
2019-03-28T17:34:13.030Z,2.30
2019-03-28T17:36:39.323Z,2.27
2019-03-28T17:39:08.690Z,2.30
2019-03-28T17:41:53.441Z,1.93
2019-03-28T17:44:20.026Z,1.90
2019-03-28T17:46:48.830Z,2.60
2019-03-28T17:49:15.153Z,2.30
2019-03-28T17:51:44.045Z,1.93
2019-03-28T17:54:11.779Z,2.23
2019-03-28T17:56:38.211Z,2.73
2019-03-28T17:59:04.538Z,1.60
2019-03-28T18:01:30.714Z,2.33
2019-03-28T18:03:59.854Z,2.77
2019-03-28T18:06:41.353Z,2.30
2019-03-28T18:09:07.828Z,2.70
2019-03-28T18:11:34.068Z,2.33
2019-03-28T18:14:00.359Z,2.50
2019-03-28T18:16:29.274Z,2.67
2019-03-28T18:18:55.443Z,2.90
2019-03-28T18:21:21.661Z,2.40
2019-03-28T18:23:47.898Z,2.33
2019-03-28T18:26:14.052Z,2.10
2019-03-28T18:28:40.262Z,2.03
2019-03-28T18:31:06.888Z,2.07
2019-03-28T18:33:48.182Z,2.30
2019-03-28T18:36:14.343Z,2.17
2019-03-28T18:38:40.499Z,2.80
2019-03-28T18:41:06.762Z,2.27
2019-03-28T18:43:51.700Z,2.40
2019-03-28T18:46:17.988Z,3.60
2019-03-28T18:48:47.187Z,2.80
2019-03-28T18:51:28.966Z,3.07
2019-03-28T18:53:55.208Z,3.03
2019-03-28T18:56:21.903Z,2.00
2019-03-28T18:59:07.098Z,3.10
2019-03-28T19:01:33.414Z,3.37
2019-03-28T19:04:02.437Z,3.47
2019-03-28T19:06:28.753Z,3.27
2019-03-28T19:09:14.035Z,2.47
2019-03-28T19:11:40.976Z,2.90
2019-03-28T19:14:07.355Z,2.57
2019-03-28T19:16:33.609Z,2.87
2019-03-28T19:19:00.017Z,3.57
2019-03-28T19:21:28.948Z,3.50
2019-03-28T19:23:57.737Z,3.13
2019-03-28T19:26:24.029Z,2.97
2019-03-28T19:28:50.241Z,3.70
2019-03-28T19:31:16.519Z,3.47
2019-03-28T19:33:42.690Z,3.30
2019-03-28T19:36:09.322Z,3.13
2019-03-28T19:38:54.156Z,3.20
2019-03-28T19:41:20.340Z,3.87
2019-03-28T19:43:46.743Z,3.00
2019-03-28T19:46:28.519Z,3.73
2019-03-28T19:48:54.807Z,4.03
2019-03-28T19:51:21.022Z,4.37
2019-03-28T19:53:47.310Z,4.97
2019-03-28T19:56:13.533Z,3.83
2019-03-28T19:58:59.236Z,4.87
2019-03-28T20:01:25.691Z,4.13
2019-03-28T20:03:52.509Z,4.87
2019-03-28T20:06:22.253Z,3.83
2019-03-28T20:08:46.891Z,4.03
2019-03-28T20:11:13.094Z,4.33
2019-03-28T20:13:39.401Z,4.50
2019-03-28T20:16:05.679Z,3.23
2019-03-28T20:18:31.909Z,3.50
2019-03-28T20:20:58.125Z,4.07
2019-03-28T20:23:24.361Z,4.33
2019-03-28T20:25:50.525Z,4.13
2019-03-28T20:28:16.721Z,4.40
2019-03-28T20:30:55.234Z,5.77
2019-03-28T20:33:24.763Z,4.43
2019-03-28T20:36:02.240Z,4.37
2019-03-28T20:38:17.879Z,5.80
2019-03-28T20:40:44.123Z,4.43
2019-03-28T20:43:28.549Z,4.47
2019-03-28T20:45:54.863Z,4.43
